sensor_id;sensor_type;location;lat;lon;timestamp;pressure;altitude;pressure_sealevel;temperature;humidity
59487;BME280;45298;54.918;73.504;2023-03-14T00:00:07;101494.59;;;-10.05;82.74
59487;BME280;45298;54.918;73.504;2023-03-14T00:02:37;101427.88;;;-10.44;82.52
59487;BME280;45298;54.918;73.504;2023-03-14T00:05:09;101453.97;;;-10.34;83.90
59487;BME280;45298;54.918;73.504;2023-03-14T00:07:57;101451.16;;;-10.40;83.06
59487;BME280;45298;54.918;73.504;2023-03-14T00:10:44;101453.72;;;-10.40;83.68
59487;BME280;45298;54.918;73.504;2023-03-14T00:13:31;101459.50;;;-10.44;83.45
59487;BME280;45298;54.918;73.504;2023-03-14T00:16:18;101464.50;;;-10.47;83.16
59487;BME280;45298;54.918;73.504;2023-03-14T00:19:05;101452.13;;;-10.56;82.71
59487;BME280;45298;54.918;73.504;2023-03-14T00:21:53;101467.66;;;-10.53;83.35
59487;BME280;45298;54.918;73.504;2023-03-14T00:24:40;101463.41;;;-10.52;83.45
59487;BME280;45298;54.918;73.504;2023-03-14T00:27:27;101457.34;;;-10.54;82.48
59487;BME280;45298;54.918;73.504;2023-03-14T00:30:15;101445.81;;;-10.63;82.83
59487;BME280;45298;54.918;73.504;2023-03-14T00:33:02;101471.78;;;-10.56;83.29
59487;BME280;45298;54.918;73.504;2023-03-14T00:35:57;101443.00;;;-10.69;82.45
59487;BME280;45298;54.918;73.504;2023-03-14T00:38:48;101482.22;;;-10.52;82.96
59487;BME280;45298;54.918;73.504;2023-03-14T00:41:37;101444.72;;;-10.68;82.37
59487;BME280;45298;54.918;73.504;2023-03-14T00:44:24;101478.88;;;-10.51;83.92
59487;BME280;45298;54.918;73.504;2023-03-14T00:47:11;101437.41;;;-10.78;82.71
59487;BME280;45298;54.918;73.504;2023-03-14T00:50:00;101453.16;;;-10.70;83.76
59487;BME280;45298;54.918;73.504;2023-03-14T00:52:48;101414.44;;;-10.95;83.07
59487;BME280;45298;54.918;73.504;2023-03-14T00:55:17;101462.47;;;-10.72;83.25
59487;BME280;45298;54.918;73.504;2023-03-14T00:57:46;101449.22;;;-10.82;83.77
59487;BME280;45298;54.918;73.504;2023-03-14T01:00:15;101425.66;;;-10.93;83.48
59487;BME280;45298;54.918;73.504;2023-03-14T01:02:43;101436.69;;;-10.94;81.87
59487;BME280;45298;54.918;73.504;2023-03-14T01:05:12;101360.16;;;-11.40;83.80
59487;BME280;45298;54.918;73.504;2023-03-14T01:07:42;101435.59;;;-10.99;82.80
59487;BME280;45298;54.918;73.504;2023-03-14T01:10:11;101351.25;;;-11.48;82.80
59487;BME280;45298;54.918;73.504;2023-03-14T01:12:39;101453.03;;;-10.91;82.20
59487;BME280;45298;54.918;73.504;2023-03-14T01:15:08;101421.94;;;-11.16;83.42
59487;BME280;45298;54.918;73.504;2023-03-14T01:17:37;101445.84;;;-10.99;82.83
59487;BME280;45298;54.918;73.504;2023-03-14T01:20:25;101410.03;;;-11.15;82.65
59487;BME280;45298;54.918;73.504;2023-03-14T01:23:15;101460.94;;;-10.87;82.59
59487;BME280;45298;54.918;73.504;2023-03-14T01:26:02;101446.94;;;-10.94;82.21
59487;BME280;45298;54.918;73.504;2023-03-14T01:28:50;101426.94;;;-11.01;82.97
59487;BME280;45298;54.918;73.504;2023-03-14T01:31:42;101418.47;;;-11.00;82.45
59487;BME280;45298;54.918;73.504;2023-03-14T01:34:10;101438.47;;;-10.93;83.66
59487;BME280;45298;54.918;73.504;2023-03-14T01:36:39;101418.47;;;-11.00;82.68
59487;BME280;45298;54.918;73.504;2023-03-14T01:39:09;101451.84;;;-10.80;82.86
59487;BME280;45298;54.918;73.504;2023-03-14T01:41:38;101448.41;;;-10.81;82.73
59487;BME280;45298;54.918;73.504;2023-03-14T01:44:11;101405.94;;;-10.94;83.48
59487;BME280;45298;54.918;73.504;2023-03-14T01:46:45;101407.84;;;-10.89;83.52
59487;BME280;45298;54.918;73.504;2023-03-14T01:52:18;101425.75;;;-10.71;82.77
59487;BME280;45298;54.918;73.504;2023-03-14T01:54:54;101394.88;;;-10.93;82.89
59487;BME280;45298;54.918;73.504;2023-03-14T01:57:37;101403.16;;;-10.80;83.52
59487;BME280;45298;54.918;73.504;2023-03-14T02:00:13;101397.72;;;-10.68;82.29
59487;BME280;45298;54.918;73.504;2023-03-14T02:02:46;101385.09;;;-10.64;83.81
59487;BME280;45298;54.918;73.504;2023-03-14T02:05:23;101381.88;;;-10.59;82.52
59487;BME280;45298;54.918;73.504;2023-03-14T02:08:00;101391.03;;;-10.65;82.79
59487;BME280;45298;54.918;73.504;2023-03-14T02:10:39;101307.59;;;-10.96;82.53
59487;BME280;45298;54.918;73.504;2023-03-14T02:13:11;101383.13;;;-10.51;82.71
59487;BME280;45298;54.918;73.504;2023-03-14T02:15:49;101302.69;;;-10.91;83.03
59487;BME280;45298;54.918;73.504;2023-03-14T02:18:37;101411.72;;;-10.22;82.73
59487;BME280;45298;54.918;73.504;2023-03-14T02:22:18;101414.13;;;-9.86;82.92
59487;BME280;45298;54.918;73.504;2023-03-14T02:25:14;101409.97;;;-9.43;82.13
59487;BME280;45298;54.918;73.504;2023-03-14T02:27:45;101359.00;;;-9.11;80.92
59487;BME280;45298;54.918;73.504;2023-03-14T02:30:21;101391.63;;;-8.17;80.01
59487;BME280;45298;54.918;73.504;2023-03-14T02:32:54;101387.88;;;-7.51;79.52
59487;BME280;45298;54.918;73.504;2023-03-14T02:35:26;101402.41;;;-6.73;77.92
59487;BME280;45298;54.918;73.504;2023-03-14T02:38:00;101309.66;;;-6.99;77.40
59487;BME280;45298;54.918;73.504;2023-03-14T02:40:38;101365.03;;;-6.58;76.12
59487;BME280;45298;54.918;73.504;2023-03-14T02:43:07;101411.94;;;-6.43;77.42
59487;BME280;45298;54.918;73.504;2023-03-14T02:45:47;101402.03;;;-6.56;76.16
59487;BME280;45298;54.918;73.504;2023-03-14T02:48:32;101399.91;;;-6.99;77.73
59487;BME280;45298;54.918;73.504;2023-03-14T02:51:02;101362.97;;;-7.25;77.38
59487;BME280;45298;54.918;73.504;2023-03-14T02:53:34;101391.63;;;-6.88;76.78
59487;BME280;45298;54.918;73.504;2023-03-14T02:56:08;101368.59;;;-6.82;77.10
59487;BME280;45298;54.918;73.504;2023-03-14T02:58:38;101341.69;;;-7.19;77.42
59487;BME280;45298;54.918;73.504;2023-03-14T03:01:19;101359.16;;;-7.09;76.72
59487;BME280;45298;54.918;73.504;2023-03-14T03:03:48;101360.81;;;-6.84;77.46
59487;BME280;45298;54.918;73.504;2023-03-14T03:06:20;101385.34;;;-6.69;77.01
59487;BME280;45298;54.918;73.504;2023-03-14T03:08:48;101390.16;;;-6.80;76.54
59487;BME280;45298;54.918;73.504;2023-03-14T03:11:17;101343.66;;;-7.10;77.07
59487;BME280;45298;54.918;73.504;2023-03-14T03:13:46;101378.72;;;-6.88;76.45
59487;BME280;45298;54.918;73.504;2023-03-14T03:16:15;101353.19;;;-7.08;77.01
59487;BME280;45298;54.918;73.504;2023-03-14T03:18:43;101348.34;;;-6.99;77.27
59487;BME280;45298;54.918;73.504;2023-03-14T03:21:12;101384.50;;;-6.95;77.37
59487;BME280;45298;54.918;73.504;2023-03-14T03:23:43;101353.44;;;-6.71;76.68
59487;BME280;45298;54.918;73.504;2023-03-14T03:26:12;101365.03;;;-6.58;76.14
59487;BME280;45298;54.918;73.504;2023-03-14T03:28:40;101346.56;;;-6.71;76.59
59487;BME280;45298;54.918;73.504;2023-03-14T03:31:11;101318.03;;;-6.77;76.88
59487;BME280;45298;54.918;73.504;2023-03-14T03:33:40;101362.19;;;-6.35;77.63
59487;BME280;45298;54.918;73.504;2023-03-14T03:36:09;101331.94;;;-6.41;76.98
59487;BME280;45298;54.918;73.504;2023-03-14T03:38:39;101326.81;;;-6.40;76.28
59487;BME280;45298;54.918;73.504;2023-03-14T03:41:09;101258.09;;;-6.66;76.79
59487;BME280;45298;54.918;73.504;2023-03-14T03:43:38;101338.16;;;-6.02;77.47
59487;BME280;45298;54.918;73.504;2023-03-14T03:46:09;101346.66;;;-5.73;76.76
59487;BME280;45298;54.918;73.504;2023-03-14T03:48:38;101336.81;;;-5.53;76.60
59487;BME280;45298;54.918;73.504;2023-03-14T03:51:09;101320.28;;;-5.23;76.47
59487;BME280;45298;54.918;73.504;2023-03-14T03:53:40;101324.97;;;-5.06;75.51
59487;BME280;45298;54.918;73.504;2023-03-14T03:56:11;101304.06;;;-5.16;75.87
59487;BME280;45298;54.918;73.504;2023-03-14T03:58:41;101350.63;;;-4.77;75.67
59487;BME280;45298;54.918;73.504;2023-03-14T04:01:13;101321.59;;;-4.64;75.35
59487;BME280;45298;54.918;73.504;2023-03-14T04:03:45;101318.53;;;-4.44;74.90
59487;BME280;45298;54.918;73.504;2023-03-14T04:06:14;101294.31;;;-4.46;74.11
59487;BME280;45298;54.918;73.504;2023-03-14T04:08:45;101349.72;;;-3.93;73.86
59487;BME280;45298;54.918;73.504;2023-03-14T04:11:37;101329.03;;;-3.90;73.78
59487;BME280;45298;54.918;73.504;2023-03-14T04:14:26;101256.88;;;-4.16;73.39
59487;BME280;45298;54.918;73.504;2023-03-14T04:17:02;101336.63;;;-3.52;73.37
59487;BME280;45298;54.918;73.504;2023-03-14T04:19:31;101301.69;;;-3.73;72.71
59487;BME280;45298;54.918;73.504;2023-03-14T04:22:00;101328.84;;;-3.52;72.45
59487;BME280;45298;54.918;73.504;2023-03-14T04:24:34;101296.50;;;-3.74;72.19
59487;BME280;45298;54.918;73.504;2023-03-14T04:27:03;101303.63;;;-3.61;72.52
59487;BME280;45298;54.918;73.504;2023-03-14T04:29:34;101315.06;;;-3.48;72.51
59487;BME280;45298;54.918;73.504;2023-03-14T04:32:03;101254.97;;;-3.77;72.08
59487;BME280;45298;54.918;73.504;2023-03-14T04:34:32;101304.59;;;-3.54;71.93
59487;BME280;45298;54.918;73.504;2023-03-14T04:37:01;101295.84;;;-3.61;72.63
59487;BME280;45298;54.918;73.504;2023-03-14T04:39:35;101280.94;;;-3.74;72.28
59487;BME280;45298;54.918;73.504;2023-03-14T04:42:15;101300.78;;;-3.75;72.33
59487;BME280;45298;54.918;73.504;2023-03-14T04:44:43;101276.28;;;-3.92;72.27
59487;BME280;45298;54.918;73.504;2023-03-14T04:47:13;101278.09;;;-3.88;72.24
59487;BME280;45298;54.918;73.504;2023-03-14T04:49:42;101309.41;;;-3.76;71.90
59487;BME280;45298;54.918;73.504;2023-03-14T04:52:14;101290.16;;;-3.90;72.07
59487;BME280;45298;54.918;73.504;2023-03-14T04:54:42;101303.25;;;-3.83;72.22
59487;BME280;45298;54.918;73.504;2023-03-14T04:57:11;101271.91;;;-3.97;72.47
59487;BME280;45298;54.918;73.504;2023-03-14T04:59:40;101275.38;;;-3.96;72.20
59487;BME280;45298;54.918;73.504;2023-03-14T05:02:41;101268.44;;;-3.97;72.38
59487;BME280;45298;54.918;73.504;2023-03-14T05:05:19;101272.16;;;-3.83;72.22
59487;BME280;45298;54.918;73.504;2023-03-14T05:08:06;101252.31;;;-3.79;72.09
59487;BME280;45298;54.918;73.504;2023-03-14T05:11:10;101203.66;;;-3.96;71.73
59487;BME280;45298;54.918;73.504;2023-03-14T05:14:01;101202.16;;;-3.81;71.14
59487;BME280;45298;54.918;73.504;2023-03-14T05:16:33;101225.25;;;-3.41;70.87
59487;BME280;45298;54.918;73.504;2023-03-14T05:19:20;101230.75;;;-3.18;70.15
59487;BME280;45298;54.918;73.504;2023-03-14T05:22:18;101242.34;;;-2.91;69.70
59487;BME280;45298;54.918;73.504;2023-03-14T05:25:06;101260.13;;;-2.53;69.72
59487;BME280;45298;54.918;73.504;2023-03-14T05:27:47;101173.28;;;-2.77;68.92
59487;BME280;45298;54.918;73.504;2023-03-14T05:30:24;101262.47;;;-1.91;68.52
59487;BME280;45298;54.918;73.504;2023-03-14T05:33:06;101223.53;;;-1.84;67.08
59487;BME280;45298;54.918;73.504;2023-03-14T05:36:03;101238.59;;;-1.39;66.81
59487;BME280;45298;54.918;73.504;2023-03-14T05:38:52;101230.88;;;-1.28;66.28
59487;BME280;45298;54.918;73.504;2023-03-14T05:41:47;101228.41;;;-1.02;65.50
59487;BME280;45298;54.918;73.504;2023-03-14T05:44:42;101194.59;;;-0.93;64.82
59487;BME280;45298;54.918;73.504;2023-03-14T05:47:34;101227.72;;;-0.54;64.54
59487;BME280;45298;54.918;73.504;2023-03-14T05:50:32;101237.38;;;-0.13;64.06
59487;BME280;45298;54.918;73.504;2023-03-14T05:53:14;101182.59;;;-0.25;63.47
59487;BME280;45298;54.918;73.504;2023-03-14T05:55:55;101217.38;;;-0.02;62.49
59487;BME280;45298;54.918;73.504;2023-03-14T05:58:48;101216.53;;;0.06;62.62
59487;BME280;45298;54.918;73.504;2023-03-14T06:01:24;101184.34;;;0.01;62.24
59487;BME280;45298;54.918;73.504;2023-03-14T06:04:06;101173.03;;;0.12;61.88
59487;BME280;45298;54.918;73.504;2023-03-14T06:06:35;101170.41;;;0.23;61.49
59487;BME280;45298;54.918;73.504;2023-03-14T06:09:03;101214.72;;;0.62;61.28
59487;BME280;45298;54.918;73.504;2023-03-14T06:11:35;101172.03;;;0.83;60.43
59487;BME280;45298;54.918;73.504;2023-03-14T06:14:05;101150.31;;;0.66;59.92
59487;BME280;45298;54.918;73.504;2023-03-14T06:16:35;101133.78;;;0.64;60.04
59487;BME280;45298;54.918;73.504;2023-03-14T06:19:04;101191.94;;;1.08;59.80
59487;BME280;45298;54.918;73.504;2023-03-14T06:21:33;101167.50;;;1.21;59.17
59487;BME280;45298;54.918;73.504;2023-03-14T06:24:02;101163.13;;;1.20;58.53
59487;BME280;45298;54.918;73.504;2023-03-14T06:26:39;101163.09;;;1.32;58.78
59487;BME280;45298;54.918;73.504;2023-03-14T06:29:09;101166.34;;;1.67;58.68
59487;BME280;45298;54.918;73.504;2023-03-14T06:31:38;101148.81;;;1.78;58.10
59487;BME280;45298;54.918;73.504;2023-03-14T06:34:07;101163.44;;;2.04;57.59
59487;BME280;45298;54.918;73.504;2023-03-14T06:36:36;101179.69;;;2.40;56.87
59487;BME280;45298;54.918;73.504;2023-03-14T06:39:05;101195.03;;;2.78;55.98
59487;BME280;45298;54.918;73.504;2023-03-14T06:41:36;101173.16;;;2.80;55.59
59487;BME280;45298;54.918;73.504;2023-03-14T06:44:05;101107.13;;;2.53;55.58
59487;BME280;45298;54.918;73.504;2023-03-14T06:46:34;101189.38;;;3.13;55.12
59487;BME280;45298;54.918;73.504;2023-03-14T06:49:03;101175.50;;;3.04;54.53
59487;BME280;45298;54.918;73.504;2023-03-14T06:51:33;101117.63;;;2.50;54.55
59487;BME280;45298;54.918;73.504;2023-03-14T06:54:07;101162.53;;;2.91;54.55
59487;BME280;45298;54.918;73.504;2023-03-14T06:56:35;101181.56;;;3.06;54.25
59487;BME280;45298;54.918;73.504;2023-03-14T06:59:04;101159.03;;;2.92;54.17
59487;BME280;45298;54.918;73.504;2023-03-14T07:01:33;101148.63;;;2.86;53.41
59487;BME280;45298;54.918;73.504;2023-03-14T07:04:10;101105.25;;;2.63;54.08
59487;BME280;45298;54.918;73.504;2023-03-14T07:06:43;101121.63;;;2.81;53.60
59487;BME280;45298;54.918;73.504;2023-03-14T07:09:16;101171.88;;;3.14;53.20
59487;BME280;45298;54.918;73.504;2023-03-14T07:11:53;101177.81;;;3.25;53.57
59487;BME280;45298;54.918;73.504;2023-03-14T07:14:22;101172.38;;;3.41;53.04
59487;BME280;45298;54.918;73.504;2023-03-14T07:16:51;101143.53;;;3.41;52.94
59487;BME280;45298;54.918;73.504;2023-03-14T07:19:20;101154.88;;;3.43;53.07
59487;BME280;45298;54.918;73.504;2023-03-14T07:21:49;101129.38;;;3.51;52.76
59487;BME280;45298;54.918;73.504;2023-03-14T07:24:22;101139.78;;;3.57;52.20
59487;BME280;45298;54.918;73.504;2023-03-14T07:26:51;101133.44;;;3.72;52.42
59487;BME280;45298;54.918;73.504;2023-03-14T07:29:21;101151.06;;;4.17;52.28
59487;BME280;45298;54.918;73.504;2023-03-14T07:31:49;101074.56;;;3.87;51.13
59487;BME280;45298;54.918;73.504;2023-03-14T07:34:19;101094.19;;;4.16;51.05
59487;BME280;45298;54.918;73.504;2023-03-14T07:36:49;101058.09;;;3.79;51.28
59487;BME280;45298;54.918;73.504;2023-03-14T07:39:17;101110.28;;;3.98;52.23
59487;BME280;45298;54.918;73.504;2023-03-14T07:42:08;101094.34;;;4.08;51.26
59487;BME280;45298;54.918;73.504;2023-03-14T07:44:54;101111.53;;;4.23;51.11
59487;BME280;45298;54.918;73.504;2023-03-14T07:47:23;101117.53;;;4.32;51.11
59487;BME280;45298;54.918;73.504;2023-03-14T07:49:51;101112.63;;;4.13;51.80
59487;BME280;45298;54.918;73.504;2023-03-14T07:52:20;101089.28;;;3.96;51.77
59487;BME280;45298;54.918;73.504;2023-03-14T07:54:49;101093.34;;;4.14;51.85
59487;BME280;45298;54.918;73.504;2023-03-14T07:57:17;101067.16;;;4.11;51.24
59487;BME280;45298;54.918;73.504;2023-03-14T07:59:46;101079.97;;;4.28;50.69
59487;BME280;45298;54.918;73.504;2023-03-14T08:02:15;101069.41;;;4.30;50.65
59487;BME280;45298;54.918;73.504;2023-03-14T08:04:43;101081.69;;;4.29;50.75
59487;BME280;45298;54.918;73.504;2023-03-14T08:07:12;101046.25;;;4.05;51.26
59487;BME280;45298;54.918;73.504;2023-03-14T08:09:41;101067.00;;;4.19;51.10
59487;BME280;45298;54.918;73.504;2023-03-14T08:12:09;101075.56;;;4.29;50.96
59487;BME280;45298;54.918;73.504;2023-03-14T08:14:38;101039.22;;;4.07;51.27
59487;BME280;45298;54.918;73.504;2023-03-14T08:17:07;101036.53;;;4.10;50.99
59487;BME280;45298;54.918;73.504;2023-03-14T08:19:36;101030.47;;;4.06;50.89
59487;BME280;45298;54.918;73.504;2023-03-14T08:22:05;101022.34;;;4.20;50.68
59487;BME280;45298;54.918;73.504;2023-03-14T08:24:34;101033.44;;;4.35;50.90
59487;BME280;45298;54.918;73.504;2023-03-14T08:27:03;101042.94;;;4.41;51.51
59487;BME280;45298;54.918;73.504;2023-03-14T08:29:34;101018.44;;;4.40;50.70
59487;BME280;45298;54.918;73.504;2023-03-14T08:32:03;101016.09;;;4.24;50.43
59487;BME280;45298;54.918;73.504;2023-03-14T08:34:33;101029.03;;;4.35;50.49
59487;BME280;45298;54.918;73.504;2023-03-14T08:37:02;101036.22;;;4.26;50.64
59487;BME280;45298;54.918;73.504;2023-03-14T08:39:37;100977.81;;;3.69;50.76
59487;BME280;45298;54.918;73.504;2023-03-14T08:42:06;101009.84;;;3.86;51.24
59487;BME280;45298;54.918;73.504;2023-03-14T08:44:35;100983.78;;;3.77;51.21
59487;BME280;45298;54.918;73.504;2023-03-14T08:47:04;101012.47;;;3.88;51.50
59487;BME280;45298;54.918;73.504;2023-03-14T08:49:33;100993.72;;;3.59;51.22
59487;BME280;45298;54.918;73.504;2023-03-14T08:52:03;100948.44;;;2.96;51.48
59487;BME280;45298;54.918;73.504;2023-03-14T08:54:32;101021.00;;;3.49;51.67
59487;BME280;45298;54.918;73.504;2023-03-14T08:57:01;100977.63;;;3.29;52.03
59487;BME280;45298;54.918;73.504;2023-03-14T08:59:30;101009.59;;;3.52;52.11
59487;BME280;45298;54.918;73.504;2023-03-14T09:01:58;100977.16;;;3.56;51.61
59487;BME280;45298;54.918;73.504;2023-03-14T09:04:27;101003.25;;;3.63;51.23
59487;BME280;45298;54.918;73.504;2023-03-14T09:06:56;100991.34;;;3.45;51.39
59487;BME280;45298;54.918;73.504;2023-03-14T09:09:28;100999.78;;;3.63;51.74
59487;BME280;45298;54.918;73.504;2023-03-14T09:11:59;100974.91;;;3.36;51.78
59487;BME280;45298;54.918;73.504;2023-03-14T09:14:28;100996.66;;;3.41;52.02
59487;BME280;45298;54.918;73.504;2023-03-14T09:16:57;101001.03;;;3.40;52.42
59487;BME280;45298;54.918;73.504;2023-03-14T09:19:26;101006.66;;;3.17;52.90
59487;BME280;45298;54.918;73.504;2023-03-14T09:21:55;100986.03;;;2.95;53.19
59487;BME280;45298;54.918;73.504;2023-03-14T09:24:29;100957.44;;;2.80;53.62
59487;BME280;45298;54.918;73.504;2023-03-14T09:26:57;100973.84;;;2.93;53.07
59487;BME280;45298;54.918;73.504;2023-03-14T09:29:27;100967.88;;;2.81;53.61
59487;BME280;45298;54.918;73.504;2023-03-14T09:31:57;100980.13;;;2.81;53.90
59487;BME280;45298;54.918;73.504;2023-03-14T09:34:27;100962.91;;;2.64;53.80
59487;BME280;45298;54.918;73.504;2023-03-14T09:36:56;100901.53;;;2.21;54.08
59487;BME280;45298;54.918;73.504;2023-03-14T09:39:25;100969.19;;;2.52;54.07
59487;BME280;45298;54.918;73.504;2023-03-14T09:42:00;100960.56;;;2.44;54.52
59487;BME280;45298;54.918;73.504;2023-03-14T09:44:43;100944.16;;;2.31;54.39
59487;BME280;45298;54.918;73.504;2023-03-14T09:47:19;100941.59;;;2.26;55.09
59487;BME280;45298;54.918;73.504;2023-03-14T09:49:48;100938.25;;;2.15;55.10
59487;BME280;45298;54.918;73.504;2023-03-14T09:52:23;100888.03;;;1.85;55.23
59487;BME280;45298;54.918;73.504;2023-03-14T09:55:06;100885.53;;;1.74;55.61
59487;BME280;45298;54.918;73.504;2023-03-14T09:57:39;100926.97;;;2.08;56.07
59487;BME280;45298;54.918;73.504;2023-03-14T10:00:19;100949.66;;;2.09;55.63
59487;BME280;45298;54.918;73.504;2023-03-14T10:03:40;100935.84;;;1.98;56.17
59487;BME280;45298;54.918;73.504;2023-03-14T10:05:43;100936.81;;;1.88;56.28
59487;BME280;45298;54.918;73.504;2023-03-14T10:08:13;100908.31;;;1.66;56.94
59487;BME280;45298;54.918;73.504;2023-03-14T10:10:42;100932.66;;;1.71;56.95
59487;BME280;45298;54.918;73.504;2023-03-14T10:13:24;100900.72;;;1.43;57.47
59487;BME280;45298;54.918;73.504;2023-03-14T10:16:02;100906.06;;;1.33;57.42
59487;BME280;45298;54.918;73.504;2023-03-14T10:18:34;100912.22;;;1.25;57.61
59487;BME280;45298;54.918;73.504;2023-03-14T10:21:25;100922.72;;;1.18;57.55
59487;BME280;45298;54.918;73.504;2023-03-14T10:24:17;100893.16;;;1.15;58.06
59487;BME280;45298;54.918;73.504;2023-03-14T10:26:55;100889.66;;;1.17;57.29
59487;BME280;45298;54.918;73.504;2023-03-14T10:29:26;100832.38;;;0.93;57.93
59487;BME280;45298;54.918;73.504;2023-03-14T10:32:01;100910.34;;;1.38;57.49
59487;BME280;45298;54.918;73.504;2023-03-14T10:34:34;100916.41;;;1.44;58.04
59487;BME280;45298;54.918;73.504;2023-03-14T10:37:24;100864.34;;;1.21;58.19
59487;BME280;45298;54.918;73.504;2023-03-14T10:39:59;100855.53;;;1.30;57.73
59487;BME280;45298;54.918;73.504;2023-03-14T10:42:41;100872.03;;;1.37;57.49
59487;BME280;45298;54.918;73.504;2023-03-14T10:45:31;100875.50;;;1.37;57.67
59487;BME280;45298;54.918;73.504;2023-03-14T10:48:22;100873.88;;;1.27;58.14
59487;BME280;45298;54.918;73.504;2023-03-14T10:51:04;100806.28;;;0.93;58.15
59487;BME280;45298;54.918;73.504;2023-03-14T10:53:46;100853.97;;;1.15;58.68
59487;BME280;45298;54.918;73.504;2023-03-14T10:56:20;100878.28;;;1.22;58.95
59487;BME280;45298;54.918;73.504;2023-03-14T10:58:52;100880.91;;;1.22;58.88
59487;BME280;45298;54.918;73.504;2023-03-14T11:01:36;100880.91;;;1.18;59.01
59487;BME280;45298;54.918;73.504;2023-03-14T11:13:42;100845.03;;;0.38;61.37
59487;BME280;45298;54.918;73.504;2023-03-14T11:16:19;100857.22;;;0.36;61.74
59487;BME280;45298;54.918;73.504;2023-03-14T11:18:57;100865.19;;;0.16;61.96
59487;BME280;45298;54.918;73.504;2023-03-14T11:21:45;100840.13;;;-0.13;62.25
59487;BME280;45298;54.918;73.504;2023-03-14T11:27:21;100850.56;;;-0.18;62.82
59487;BME280;45298;54.918;73.504;2023-03-14T11:32:56;100809.03;;;-0.52;63.77
59487;BME280;45298;54.918;73.504;2023-03-14T11:38:46;100812.56;;;-0.78;64.49
59487;BME280;45298;54.918;73.504;2023-03-14T11:41:23;100769.25;;;-1.12;65.15
59487;BME280;45298;54.918;73.504;2023-03-14T11:46:28;100802.22;;;-1.03;65.62
59487;BME280;45298;54.918;73.504;2023-03-14T11:49:14;100806.59;;;-1.14;65.20
59487;BME280;45298;54.918;73.504;2023-03-14T11:51:52;100774.53;;;-1.47;65.95
59487;BME280;45298;54.918;73.504;2023-03-14T11:54:39;100783.19;;;-1.48;66.82
59487;BME280;45298;54.918;73.504;2023-03-14T11:57:21;100768.47;;;-1.60;66.97
59487;BME280;45298;54.918;73.504;2023-03-14T12:02:58;100793.59;;;-1.64;67.19
59487;BME280;45298;54.918;73.504;2023-03-14T12:05:35;100785.78;;;-1.72;67.86
59487;BME280;45298;54.918;73.504;2023-03-14T12:11:12;100743.28;;;-2.08;68.48
59487;BME280;45298;54.918;73.504;2023-03-14T12:13:46;100755.44;;;-2.08;68.59
59487;BME280;45298;54.918;73.504;2023-03-14T12:18:53;100767.53;;;-2.04;69.43
59487;BME280;45298;54.918;73.504;2023-03-14T12:21:27;100747.63;;;-2.16;69.44
59487;BME280;45298;54.918;73.504;2023-03-14T12:24:29;100757.13;;;-2.17;69.44
59487;BME280;45298;54.918;73.504;2023-03-14T12:27:02;100754.53;;;-2.24;70.78
59487;BME280;45298;54.918;73.504;2023-03-14T12:29:31;100734.56;;;-2.43;70.48
59487;BME280;45298;54.918;73.504;2023-03-14T12:34:35;100757.97;;;-2.36;71.83
59487;BME280;45298;54.918;73.504;2023-03-14T12:37:44;100734.53;;;-2.55;72.21
59487;BME280;45298;54.918;73.504;2023-03-14T12:40:21;100724.09;;;-2.64;72.59
59487;BME280;45298;54.918;73.504;2023-03-14T12:43:00;100734.50;;;-2.58;72.03
59487;BME280;45298;54.918;73.504;2023-03-14T12:45:34;100727.56;;;-2.71;73.14
59487;BME280;45298;54.918;73.504;2023-03-14T12:48:22;100758.78;;;-2.58;73.24
59487;BME280;45298;54.918;73.504;2023-03-14T12:51:02;100728.38;;;-2.74;73.60
59487;BME280;45298;54.918;73.504;2023-03-14T12:59:27;100752.59;;;-2.80;74.89
59487;BME280;45298;54.918;73.504;2023-03-14T13:04:53;100724.91;;;-2.82;75.08
59487;BME280;45298;54.918;73.504;2023-03-14T13:15:39;100747.44;;;-2.77;75.42
59487;BME280;45298;54.918;73.504;2023-03-14T13:18:50;100678.88;;;-3.22;75.64
59487;BME280;45298;54.918;73.504;2023-03-14T13:21:28;100711.03;;;-2.97;75.88
59487;BME280;45298;54.918;73.504;2023-03-14T13:24:20;100737.00;;;-2.83;75.89
59487;BME280;45298;54.918;73.504;2023-03-14T13:26:54;100710.13;;;-3.00;75.90
59487;BME280;45298;54.918;73.504;2023-03-14T13:29:27;100689.28;;;-3.16;76.28
59487;BME280;45298;54.918;73.504;2023-03-14T13:32:15;100682.38;;;-3.14;76.01
59487;BME280;45298;54.918;73.504;2023-03-14T13:34:49;100683.25;;;-3.16;77.03
59487;BME280;45298;54.918;73.504;2023-03-14T13:37:23;100708.34;;;-3.09;76.50
59487;BME280;45298;54.918;73.504;2023-03-14T13:39:54;100717.84;;;-3.14;76.77
59487;BME280;45298;54.918;73.504;2023-03-14T13:42:28;100671.03;;;-3.39;76.83
59487;BME280;45298;54.918;73.504;2023-03-14T13:44:58;100687.47;;;-3.36;77.24
59487;BME280;45298;54.918;73.504;2023-03-14T13:47:27;100707.44;;;-3.19;77.77
59487;BME280;45298;54.918;73.504;2023-03-14T13:49:58;100678.88;;;-3.28;77.62
59487;BME280;45298;54.918;73.504;2023-03-14T13:52:34;100655.41;;;-3.47;77.78
59487;BME280;45298;54.918;73.504;2023-03-14T13:55:06;100671.00;;;-3.41;77.83
59487;BME280;45298;54.918;73.504;2023-03-14T13:57:51;100672.72;;;-3.40;78.02
59487;BME280;45298;54.918;73.504;2023-03-14T14:00:27;100639.72;;;-3.72;78.08
59487;BME280;45298;54.918;73.504;2023-03-14T14:02:58;100650.09;;;-3.69;78.36
59487;BME280;45298;54.918;73.504;2023-03-14T14:05:29;100677.88;;;-3.52;78.39
59487;BME280;45298;54.918;73.504;2023-03-14T14:08:02;100657.84;;;-3.70;78.68
59487;BME280;45298;54.918;73.504;2023-03-14T14:10:32;100641.38;;;-3.80;77.87
59487;BME280;45298;54.918;73.504;2023-03-14T14:13:03;100686.44;;;-3.59;78.64
59487;BME280;45298;54.918;73.504;2023-03-14T14:15:39;100653.50;;;-3.76;78.29
59487;BME280;45298;54.918;73.504;2023-03-14T14:18:15;100648.31;;;-3.81;79.19